Alexander Valley, California
Current Conditions -  °F | °C
As of 12:53 PM on Tuesday 21 Oct 2014 (Local Time) from KSTS Reporting Station
Scattered Clouds Scattered Clouds  
Wind Chill: 69°   Ceiling: Unl
Heat Index: 69°   Visibility: 10mi
Dew Point: 44°   Wind: 6mph
Humidity: 40%   Direction: 280°W
Pressure: 30.06"   Gusts: NA
Location:  38.7422°N, 122.861°W
Report Text: KSTS 211953Z 28005KT 10SM SCT250 21/07 A3006 RMK AO2 SLP175 T02060067
Loading
Personal Weather Stations






























Interactive Weather Map
Tropical Storm Tracking
New forecast layout! Learn more

10-Day Weather Forecast

Advertisements
Track Severe Weather on mobile